Time;durP1;ratioP1;P1;durP2;ratioP2;P2;SDS_P1;SDS_P2;PMS_P1;PMS_P2;Temp;Humidity;BMP_temperature;BMP_pressure;BME280_temperature;BME280_humidity;BME280_pressure;Samples;Min_cycle;Max_cycle;Signal;HPM_P1;HPM_P2
2021/01/24 00:01:32;;;;;;;5.32;3.50;;;;;;;3.17;100.00;98658.13;5062262;28;20024;-70
2021/01/24 00:03:57;;;;;;;3.15;1.88;;;;;;;3.18;100.00;98662.47;5060771;28;20059;-70
2021/01/24 00:06:22;;;;;;;3.53;2.33;;;;;;;3.11;100.00;98661.19;5063881;28;20294;-71
2021/01/24 00:08:48;;;;;;;2.72;1.85;;;;;;;3.05;100.00;98658.09;5057700;28;20038;-70
2021/01/24 00:11:13;;;;;;;4.80;1.98;;;;;;;3.03;100.00;98660.84;5065491;28;20521;-70
2021/01/24 00:13:39;;;;;;;2.67;1.50;;;;;;;2.87;100.00;98660.16;5064745;28;20035;-70
2021/01/24 00:16:04;;;;;;;2.10;1.58;;;;;;;2.89;100.00;98660.06;5058521;28;20498;-71
2021/01/24 00:18:30;;;;;;;3.45;1.92;;;;;;;2.75;100.00;98663.63;5066664;28;20490;-71
2021/01/24 00:20:55;;;;;;;5.45;1.75;;;;;;;2.66;100.00;98658.91;5066586;28;20033;-72
2021/01/24 00:23:20;;;;;;;2.33;1.80;;;;;;;2.53;100.00;98668.63;5065525;28;20105;-72
2021/01/24 00:25:46;;;;;;;3.00;1.98;;;;;;;2.49;100.00;98669.75;5071592;28;20024;-72
2021/01/24 00:28:12;;;;;;;2.60;1.55;;;;;;;2.55;100.00;98669.34;5069056;28;20495;-72
2021/01/24 00:30:37;;;;;;;2.22;1.80;;;;;;;2.52;100.00;98666.91;5051078;28;20020;-72
2021/01/24 00:33:03;;;;;;;2.58;1.70;;;;;;;2.33;100.00;98673.38;5084602;28;20024;-72
2021/01/24 00:35:28;;;;;;;2.92;1.92;;;;;;;2.39;100.00;98674.78;5080450;28;20059;-72
2021/01/24 00:37:54;;;;;;;2.22;1.88;;;;;;;2.34;100.00;98677.75;5061490;28;20037;-73
2021/01/24 00:40:19;;;;;;;3.33;1.95;;;;;;;2.41;100.00;98676.38;5074536;28;20039;-72
2021/01/24 00:42:45;;;;;;;3.67;2.72;;;;;;;2.32;100.00;98684.06;5069014;28;20040;-72
2021/01/24 00:45:11;;;;;;;7.65;4.72;;;;;;;2.35;100.00;98681.19;5091103;28;20020;-72
2021/01/24 00:47:36;;;;;;;13.98;8.43;;;;;;;2.23;100.00;98689.91;5075165;28;20107;-72
2021/01/24 00:50:03;;;;;;;19.00;11.88;;;;;;;2.27;100.00;98683.50;5072102;28;20612;-72
2021/01/24 00:52:29;;;;;;;20.40;13.00;;;;;;;2.19;100.00;98689.28;5072651;28;20032;-73
2021/01/24 00:54:55;;;;;;;24.45;14.23;;;;;;;2.16;100.00;98691.28;5075550;28;20033;-73
2021/01/24 00:57:21;;;;;;;27.00;16.05;;;;;;;2.16;100.00;98689.44;5089082;28;20028;-73
2021/01/24 00:59:46;;;;;;;27.23;16.40;;;;;;;2.13;100.00;98687.00;5081323;28;20121;-74
2021/01/24 01:02:12;;;;;;;30.48;17.00;;;;;;;2.16;100.00;98689.44;5071522;28;20077;-74
2021/01/24 01:04:37;;;;;;;28.25;17.67;;;;;;;2.11;100.00;98686.25;5069425;28;20032;-74
2021/01/24 01:07:03;;;;;;;30.20;17.73;;;;;;;2.08;100.00;98694.38;5077152;28;20401;-75
2021/01/24 01:09:28;;;;;;;29.85;16.30;;;;;;;2.03;100.00;98692.03;5069362;28;20215;-74
2021/01/24 01:11:53;;;;;;;28.10;16.35;;;;;;;1.99;100.00;98694.94;5068652;28;20032;-74
2021/01/24 01:14:19;;;;;;;25.90;14.65;;;;;;;1.97;100.00;98696.84;5072690;28;20032;-74
2021/01/24 01:16:44;;;;;;;27.77;13.82;;;;;;;1.85;100.00;98690.50;5069107;28;20502;-75
2021/01/24 01:19:10;;;;;;;25.00;12.93;;;;;;;1.77;100.00;98697.22;5067628;28;20037;-76
2021/01/24 01:21:35;;;;;;;19.75;11.98;;;;;;;1.76;100.00;98703.44;5061528;28;20048;-76
2021/01/24 01:24:01;;;;;;;19.90;11.73;;;;;;;1.75;100.00;98712.31;5069941;28;20051;-75
2021/01/24 01:26:27;;;;;;;22.45;11.68;;;;;;;1.72;100.00;98713.38;5059503;28;20028;-75
2021/01/24 01:28:52;;;;;;;17.67;10.40;;;;;;;1.70;100.00;98714.38;5066938;28;20028;-75
2021/01/24 01:31:18;;;;;;;16.58;9.10;;;;;;;1.67;100.00;98723.34;5051737;28;20056;-75
2021/01/24 01:33:43;;;;;;;15.55;8.70;;;;;;;1.66;100.00;98718.16;5063582;28;20024;-75
2021/01/24 01:36:09;;;;;;;14.20;7.80;;;;;;;1.69;100.00;98728.56;5066790;28;20419;-75
2021/01/24 01:38:34;;;;;;;11.05;6.80;;;;;;;1.59;100.00;98729.13;5075668;28;20039;-75
2021/01/24 01:40:59;;;;;;;11.52;6.88;;;;;;;1.61;100.00;98726.34;5079757;28;20028;-75
2021/01/24 01:43:25;;;;;;;9.80;6.20;;;;;;;1.69;100.00;98736.47;5074151;28;20080;-75
2021/01/24 01:45:50;;;;;;;9.63;5.40;;;;;;;1.67;100.00;98733.09;5068824;28;20029;-74
2021/01/24 01:48:17;;;;;;;9.48;4.93;;;;;;;1.72;100.00;98733.66;5069336;28;20040;-75
2021/01/24 01:50:43;;;;;;;8.50;4.70;;;;;;;1.67;100.00;98738.38;5062562;28;20028;-75
2021/01/24 01:53:08;;;;;;;6.50;4.20;;;;;;;1.71;100.00;98742.53;5076686;28;20047;-75
2021/01/24 01:55:33;;;;;;;6.13;3.83;;;;;;;1.69;100.00;98742.63;5073138;28;20037;-75
2021/01/24 01:57:59;;;;;;;4.60;3.17;;;;;;;1.74;100.00;98748.47;5078620;28;20071;-75
2021/01/24 02:00:24;;;;;;;5.88;2.92;;;;;;;1.73;100.00;98745.94;5071056;28;20548;-75
2021/01/24 02:03:00;;;;;;;4.90;3.00;;;;;;;1.65;100.00;98758.78;5083665;28;20483;-75
2021/01/24 02:05:54;;;;;;;6.20;3.65;;;;;;;1.61;100.00;98752.78;5071004;28;20037;-74
2021/01/24 02:08:38;;;;;;;;;;;;;;;1.52;100.00;98754.22;5065912;28;20618;-76
2021/01/24 02:11:37;;;;;;;6.90;4.07;;;;;;;1.49;100.00;98749.09;5073904;28;19977;-76
2021/01/24 02:15:04;;;;;;;6.80;4.30;;;;;;;1.45;100.00;98758.16;5073008;28;20032;-76
2021/01/24 02:17:34;;;;;;;7.35;4.63;;;;;;;1.35;100.00;98762.28;5010014;28;20500;-76
2021/01/24 02:20:11;;;;;;;7.60;4.55;;;;;;;1.35;100.00;98764.91;5009316;28;20045;-76
2021/01/24 02:22:40;;;;;;;7.85;4.80;;;;;;;1.33;100.00;98760.66;5060269;28;20079;-76
2021/01/24 02:25:13;;;;;;;9.00;5.75;;;;;;;1.28;100.00;98775.94;5071232;28;20040;-77
2021/01/24 02:27:40;;;;;;;7.57;4.80;;;;;;;1.30;100.00;98780.16;5076307;28;20051;-75
2021/01/24 02:30:18;;;;;;;7.57;5.28;;;;;;;1.27;100.00;98785.66;5067472;28;20028;-75
2021/01/24 02:32:46;;;;;;;8.63;4.97;;;;;;;1.29;100.00;98778.50;5072729;28;20036;-77
2021/01/24 02:35:12;;;;;;;8.05;4.95;;;;;;;1.25;100.00;98782.22;5060643;28;20533;-76
2021/01/24 02:37:38;;;;;;;7.88;5.03;;;;;;;1.28;100.00;98782.06;5070987;28;20032;-76
2021/01/24 02:40:05;;;;;;;9.85;5.30;;;;;;;1.25;100.00;98789.31;5068163;28;20035;-76
2021/01/24 02:42:31;;;;;;;7.95;4.80;;;;;;;1.29;100.00;98788.22;5068774;28;20448;-75
2021/01/24 02:44:58;;;;;;;6.85;4.57;;;;;;;1.25;100.00;98789.31;5061899;28;20036;-76
2021/01/24 02:47:25;;;;;;;6.78;4.10;;;;;;;1.26;100.00;98794.50;5061575;28;20033;-76
2021/01/24 02:49:51;;;;;;;7.47;4.50;;;;;;;1.26;100.00;98804.22;5061090;28;20035;-76
2021/01/24 02:52:17;;;;;;;7.38;4.47;;;;;;;1.25;100.00;98813.94;5056128;28;20032;-76
2021/01/24 02:54:43;;;;;;;7.78;4.57;;;;;;;1.27;100.00;98808.56;5063869;28;20593;-77
2021/01/24 02:57:08;;;;;;;7.60;4.90;;;;;;;1.25;100.00;98811.28;5058533;28;20059;-76
2021/01/24 02:59:35;;;;;;;9.07;4.63;;;;;;;1.23;100.00;98813.19;5079975;28;20043;-76
2021/01/24 03:02:01;;;;;;;7.28;4.00;;;;;;;1.20;100.00;98821.28;5072195;28;20036;-76
2021/01/24 03:04:26;;;;;;;7.00;3.78;;;;;;;1.20;100.00;98822.13;5081397;28;20090;-76
2021/01/24 03:06:52;;;;;;;7.72;4.03;;;;;;;1.19;100.00;98820.44;5076599;28;20056;-75
2021/01/24 03:09:18;;;;;;;5.45;3.20;;;;;;;1.19;100.00;98830.13;5075656;28;20036;-76
2021/01/24 03:11:46;;;;;;;6.25;3.40;;;;;;;1.16;100.00;98839.09;5074864;28;20119;-76
2021/01/24 03:14:21;;;;;;;6.85;3.10;;;;;;;1.20;100.00;98834.50;5077161;28;20402;-77
2021/01/24 03:16:54;;;;;;;6.00;2.78;;;;;;;1.16;100.00;98846.19;5076006;28;20032;-75
2021/01/24 03:19:22;;;;;;;6.88;2.85;;;;;;;1.10;100.00;98851.81;5071913;28;20039;-75
2021/01/24 03:21:49;;;;;;;5.15;2.53;;;;;;;1.12;100.00;98856.03;5071276;28;20039;-74
2021/01/24 03:24:17;;;;;;;6.28;2.83;;;;;;;1.14;100.00;98869.19;5078018;28;20495;-73
2021/01/24 03:26:44;;;;;;;4.78;2.60;;;;;;;1.10;100.00;98862.38;5076403;28;20703;-75
2021/01/24 03:29:09;;;;;;;7.78;2.95;;;;;;;1.14;100.00;98885.88;5075469;28;20036;-74
2021/01/24 03:31:35;;;;;;;7.15;3.15;;;;;;;1.11;100.00;98885.22;5069302;28;20044;-74
2021/01/24 03:34:04;;;;;;;4.55;2.35;;;;;;;1.11;100.00;98886.03;5085625;28;20027;-75
2021/01/24 03:36:30;;;;;;;4.72;2.67;;;;;;;1.12;100.00;98882.47;5072409;28;20036;-76
2021/01/24 03:38:55;;;;;;;7.70;3.15;;;;;;;1.12;100.00;98890.41;5076669;28;20086;-75
2021/01/24 03:41:21;;;;;;;9.40;3.15;;;;;;;1.15;100.00;98894.66;5072338;28;20047;-75
2021/01/24 03:43:46;;;;;;;8.52;3.50;;;;;;;1.15;100.00;98902.59;5067170;28;20033;-74
2021/01/24 03:46:11;;;;;;;6.45;3.90;;;;;;;1.16;100.00;98909.59;5056915;28;20488;-75
2021/01/24 03:48:37;;;;;;;8.88;4.75;;;;;;;1.17;100.00;98912.13;5086670;28;20131;-74
2021/01/24 03:51:03;;;;;;;7.97;4.85;;;;;;;1.20;100.00;98913.75;5068938;28;20032;-74
2021/01/24 03:53:28;;;;;;;8.32;5.15;;;;;;;1.18;100.00;98918.25;5068613;28;20058;-75
2021/01/24 03:55:54;;;;;;;13.70;6.07;;;;;;;1.20;100.00;98925.19;5063901;28;20044;-76
2021/01/24 03:58:19;;;;;;;10.45;5.93;;;;;;;1.16;100.00;98921.00;5078727;28;20043;-75
2021/01/24 04:00:44;;;;;;;13.77;7.03;;;;;;;1.23;100.00;98939.19;5061412;28;20039;-76
2021/01/24 04:03:10;;;;;;;13.48;6.30;;;;;;;1.22;100.00;98943.59;5046805;28;20395;-75
2021/01/24 04:05:35;;;;;;;12.68;6.32;;;;;;;1.23;100.00;98942.66;5058801;28;20034;-75
2021/01/24 04:08:01;;;;;;;13.50;6.25;;;;;;;1.22;100.00;98946.25;5062453;28;20453;-75
2021/01/24 04:10:26;;;;;;;12.45;6.10;;;;;;;1.20;100.00;98943.69;5061768;28;20056;-75
2021/01/24 04:12:52;;;;;;;10.93;6.38;;;;;;;1.19;100.00;98955.19;5064988;28;20071;-76
2021/01/24 04:15:17;;;;;;;11.55;6.45;;;;;;;1.22;100.00;98956.81;5062598;28;20043;-75
2021/01/24 04:17:44;;;;;;;13.35;6.70;;;;;;;1.25;100.00;98946.06;5067087;28;20024;-75
2021/01/24 04:20:10;;;;;;;11.75;6.78;;;;;;;1.26;100.00;98961.00;5068151;28;20059;-75
2021/01/24 04:22:36;;;;;;;13.18;7.53;;;;;;;1.25;100.00;98964.56;5074777;28;20040;-75
2021/01/24 04:25:01;;;;;;;12.07;6.85;;;;;;;1.22;100.00;98959.47;5069558;28;20055;-74
2021/01/24 04:27:27;;;;;;;14.43;7.93;;;;;;;1.23;100.00;98966.47;5073151;28;20033;-74
2021/01/24 04:29:52;;;;;;;12.55;7.18;;;;;;;1.24;100.00;98976.06;5073859;28;20029;-74
2021/01/24 04:32:18;;;;;;;15.05;7.80;;;;;;;1.29;100.00;98973.19;5074207;28;20062;-74
2021/01/24 04:34:43;;;;;;;15.95;8.43;;;;;;;1.27;100.00;98981.19;5076249;28;21898;-74
2021/01/24 04:37:09;;;;;;;15.30;8.20;;;;;;;1.27;100.00;98988.28;5071873;28;20051;-75
2021/01/24 04:39:34;;;;;;;13.95;8.15;;;;;;;1.28;100.00;98992.63;5080387;28;20036;-73
2021/01/24 04:42:00;;;;;;;17.23;8.77;;;;;;;1.25;100.00;98993.63;5058002;28;20039;-74
2021/01/24 04:44:27;;;;;;;19.33;9.43;;;;;;;1.19;100.00;99000.09;5054901;28;20029;-74
2021/01/24 04:46:53;;;;;;;17.17;9.05;;;;;;;1.19;100.00;98999.25;5071971;28;20040;-74
2021/01/24 04:49:19;;;;;;;19.88;9.38;;;;;;;1.17;100.00;99001.13;5063015;28;20067;-74
2021/01/24 04:51:45;;;;;;;18.45;9.60;;;;;;;1.23;100.00;99010.53;5069777;28;20375;-74
2021/01/24 04:54:11;;;;;;;24.48;10.45;;;;;;;1.23;100.00;99011.38;5070437;28;20594;-74
2021/01/24 04:56:38;;;;;;;18.70;9.30;;;;;;;1.20;100.00;99011.53;5066929;28;20028;-74
2021/01/24 04:59:04;;;;;;;19.45;10.05;;;;;;;1.25;100.00;99024.47;5078042;28;20402;-74
2021/01/24 05:01:31;;;;;;;24.15;10.50;;;;;;;1.25;100.00;99022.69;5071186;28;20037;-74
2021/01/24 05:03:58;;;;;;;18.90;9.82;;;;;;;1.24;100.00;99020.97;5074336;28;20024;-74
2021/01/24 05:06:24;;;;;;;20.17;10.10;;;;;;;1.26;100.00;99021.78;5077870;28;20433;-74
2021/01/24 05:08:49;;;;;;;21.33;10.00;;;;;;;1.28;100.00;99026.97;5064020;28;20190;-75
2021/01/24 05:11:14;;;;;;;18.25;9.70;;;;;;;1.28;100.00;99033.13;5069737;28;20043;-74
2021/01/24 05:13:40;;;;;;;20.83;10.95;;;;;;;1.24;100.00;99034.19;5076055;28;20118;-75
2021/01/24 05:16:06;;;;;;;20.60;9.95;;;;;;;1.23;100.00;99040.44;5072901;28;20221;-74
2021/01/24 05:18:32;;;;;;;20.65;9.77;;;;;;;1.20;100.00;99049.38;5072348;28;20037;-74
2021/01/24 05:20:58;;;;;;;19.45;10.73;;;;;;;1.19;100.00;99052.09;5067273;28;20036;-75
2021/01/24 05:23:25;;;;;;;21.42;10.75;;;;;;;1.26;100.00;99053.47;5069716;28;20482;-75
2021/01/24 05:25:54;;;;;;;20.13;10.65;;;;;;;1.28;100.00;99054.25;5071217;28;20039;-75
2021/01/24 05:28:26;;;;;;;20.95;10.52;;;;;;;1.23;100.00;99053.66;5077582;28;20040;-75
2021/01/24 05:31:01;;;;;;;20.42;11.20;;;;;;;1.22;100.00;99057.22;5058638;28;20036;-76
2021/01/24 05:33:27;;;;;;;19.17;10.23;;;;;;;1.26;100.00;99060.56;5086446;28;20035;-74
2021/01/24 05:35:52;;;;;;;21.73;11.35;;;;;;;1.30;100.00;99062.94;5071171;28;20023;-76
2021/01/24 05:38:36;;;;;;;20.88;11.43;;;;;;;1.28;100.00;99074.56;5068831;28;20556;-76
2021/01/24 05:41:07;;;;;;;22.63;11.13;;;;;;;1.23;100.00;99069.50;5063884;28;20029;-75
2021/01/24 05:43:38;;;;;;;22.42;11.52;;;;;;;1.24;100.00;99065.91;5065925;28;20040;-75
2021/01/24 05:46:05;;;;;;;23.20;12.13;;;;;;;1.20;100.00;99080.22;5057569;28;20492;-77
2021/01/24 05:48:31;;;;;;;24.10;12.10;;;;;;;1.13;100.00;99084.97;5069236;28;20408;-77
2021/01/24 05:51:01;;;;;;;22.02;12.07;;;;;;;1.23;100.00;99082.72;5053792;28;20174;-75
2021/01/24 05:53:26;;;;;;;25.48;13.07;;;;;;;1.29;100.00;99095.63;5065693;28;20032;-75
2021/01/24 05:55:51;;;;;;;23.48;12.95;;;;;;;1.30;100.00;99093.84;5062314;28;20562;-76
2021/01/24 05:58:23;;;;;;;27.77;13.95;;;;;;;1.30;100.00;99096.47;5064480;28;20425;-77
2021/01/24 06:00:50;;;;;;;28.40;14.70;;;;;;;1.32;100.00;99111.28;5061199;28;20124;-76
2021/01/24 06:03:17;;;;;;;29.92;15.10;;;;;;;1.30;100.00;99113.16;5057098;28;20032;-76
2021/01/24 06:05:43;;;;;;;32.55;16.38;;;;;;;1.29;100.00;99122.03;5071597;28;20549;-76
2021/01/24 06:08:10;;;;;;;36.72;17.95;;;;;;;1.21;100.00;99125.09;5081906;28;20024;-76
2021/01/24 06:10:36;;;;;;;38.58;18.35;;;;;;;1.29;100.00;99122.03;5071728;28;20036;-75
2021/01/24 06:13:02;;;;;;;39.60;20.02;;;;;;;1.31;100.00;99125.44;5083653;28;20020;-75
2021/01/24 06:15:29;;;;;;;48.40;21.73;;;;;;;1.27;100.00;99126.53;5067067;28;20063;-75
2021/01/24 06:17:59;;;;;;;45.42;22.55;;;;;;;1.35;100.00;99124.38;5095780;28;20436;-75
2021/01/24 06:20:40;;;;;;;50.42;23.25;;;;;;;1.31;100.00;99130.72;5066471;28;20024;-76
2021/01/24 06:23:30;;;;;;;50.80;23.00;;;;;;;1.31;100.00;99130.72;5055675;28;20028;-75
2021/01/24 06:26:12;;;;;;;51.58;24.63;;;;;;;1.36;100.00;99144.56;5064252;28;20088;-76
2021/01/24 06:28:46;;;;;;;64.47;26.05;;;;;;;1.36;100.00;99147.19;5064634;28;20035;-76
2021/01/24 06:31:16;;;;;;;51.38;23.77;;;;;;;1.31;100.00;99145.72;5075089;28;20550;-76
2021/01/24 06:33:45;;;;;;;51.30;24.52;;;;;;;1.37;100.00;99159.47;5065303;28;20059;-75
2021/01/24 06:36:12;;;;;;;61.65;25.23;;;;;;;1.37;100.00;99153.34;5046880;28;20032;-74
2021/01/24 06:38:42;;;;;;;52.40;24.23;;;;;;;1.34;100.00;99164.94;5086433;28;20115;-75
2021/01/24 06:41:10;;;;;;;53.25;24.35;;;;;;;1.23;100.00;99164.66;5086873;28;20032;-76
2021/01/24 06:43:43;;;;;;;52.97;24.17;;;;;;;1.21;100.00;99166.50;5074950;28;20047;-76
2021/01/24 06:46:29;;;;;;;59.67;24.98;;;;;;;1.18;100.00;99172.78;5070018;28;20036;-75
2021/01/24 06:48:57;;;;;;;65.07;24.88;;;;;;;1.26;100.00;99177.69;5081905;28;20036;-75
2021/01/24 06:51:42;;;;;;;59.20;25.75;;;;;;;1.22;100.00;99184.06;5080722;28;20032;-75
2021/01/24 06:54:27;;;;;;;52.22;24.60;;;;;;;1.21;100.00;99188.50;5070155;28;20767;-75
2021/01/24 06:56:53;;;;;;;55.15;25.48;;;;;;;1.26;100.00;99188.25;5070307;28;20028;-75
2021/01/24 06:59:29;;;;;;;62.28;26.20;;;;;;;1.31;100.00;99190.66;5079318;28;20532;-75
2021/01/24 07:02:35;;;;;;;53.92;23.83;;;;;;;1.34;100.00;99204.59;5070011;28;20035;-75
2021/01/24 07:05:09;;;;;;;81.53;35.30;;;;;;;1.32;100.00;99201.16;5069351;28;20040;-75
2021/01/24 07:07:47;;;;;;;57.25;27.88;;;;;;;1.28;100.00;99207.53;5066240;28;20391;-76
2021/01/24 07:10:37;;;;;;;51.78;24.92;;;;;;;1.31;100.00;99222.38;5052156;28;20095;-75
2021/01/24 07:13:24;;;;;;;54.33;23.42;;;;;;;1.39;100.00;99218.41;5066955;28;20067;-76
2021/01/24 07:15:54;;;;;;;53.30;23.38;;;;;;;1.47;100.00;99216.25;5062812;28;20111;-75
2021/01/24 07:18:20;;;;;;;50.17;24.25;;;;;;;1.55;100.00;99231.69;5067131;28;20031;-75
2021/01/24 07:20:47;;;;;;;48.55;21.38;;;;;;;1.41;100.00;99235.06;5054923;28;20189;-75
2021/01/24 07:23:13;;;;;;;47.15;20.08;;;;;;;1.46;100.00;99238.34;5081052;28;20032;-75
2021/01/24 07:25:39;;;;;;;46.75;21.27;;;;;;;1.54;100.00;99233.47;5083283;28;20040;-76
2021/01/24 07:28:06;;;;;;;46.30;19.67;;;;;;;1.59;100.00;99242.06;5074071;28;20410;-76
2021/01/24 07:30:31;;;;;;;38.13;18.40;;;;;;;1.57;100.00;99246.56;5068249;28;20039;-77
2021/01/24 07:32:57;;;;;;;44.83;20.70;;;;;;;1.53;100.00;99258.25;5074626;28;20024;-77
2021/01/24 07:35:23;;;;;;;44.42;18.85;;;;;;;1.61;100.00;99256.03;5091583;28;20064;-78
2021/01/24 07:37:50;;;;;;;40.10;17.30;;;;;;;1.61;100.00;99255.19;5061043;28;20033;-77
2021/01/24 07:40:18;;;;;;;37.88;17.13;;;;;;;1.62;100.00;99268.34;5080123;28;20055;-77
2021/01/24 07:42:45;;;;;;;34.00;16.88;;;;;;;1.64;100.00;99265.63;5098442;28;20043;-78
2021/01/24 07:45:11;;;;;;;32.38;15.85;;;;;;;1.64;100.00;99276.19;5075807;28;20494;-77
2021/01/24 07:47:37;;;;;;;34.75;16.42;;;;;;;1.67;100.00;99281.31;5081240;28;20036;-78
2021/01/24 07:50:02;;;;;;;35.75;15.45;;;;;;;1.64;100.00;99281.47;5060904;28;20506;-78
2021/01/24 07:52:28;;;;;;;38.70;16.77;;;;;;;1.63;100.00;99285.91;5073573;28;20035;-78
2021/01/24 07:54:53;;;;;;;30.98;16.83;;;;;;;1.74;100.00;99293.28;5056797;28;20028;-77
2021/01/24 07:57:19;;;;;;;38.50;16.77;;;;;;;1.73;100.00;99296.03;5077781;28;20032;-78
2021/01/24 07:59:45;;;;;;;32.60;16.20;;;;;;;1.73;100.00;99301.34;5060842;28;20502;-77
2021/01/24 08:02:11;;;;;;;31.88;16.63;;;;;;;1.75;100.00;99302.09;5085279;28;20036;-78
2021/01/24 08:04:37;;;;;;;43.55;16.83;;;;;;;1.77;100.00;99298.44;5061882;28;20047;-77
2021/01/24 08:07:07;;;;;;;35.63;18.08;;;;;;;1.76;100.00;99309.09;5046836;28;20375;-77
2021/01/24 08:09:33;;;;;;;38.80;17.98;;;;;;;1.79;100.00;99314.25;5057840;28;20024;-77
2021/01/24 08:11:59;;;;;;;38.70;19.13;;;;;;;1.78;100.00;99320.47;5070946;28;20402;-77
2021/01/24 08:14:24;;;;;;;38.53;17.30;;;;;;;1.82;100.00;99324.66;5071962;28;20028;-77
2021/01/24 08:16:51;;;;;;;35.75;17.73;;;;;;;1.85;100.00;99327.16;5068799;28;20078;-77
2021/01/24 08:19:20;;;;;;;35.83;18.90;;;;;;;1.82;100.00;99332.59;5065775;28;20036;-76
2021/01/24 08:21:47;;;;;;;40.20;19.30;;;;;;;1.78;100.00;99336.34;5070567;28;20050;-77
2021/01/24 08:24:14;;;;;;;38.22;18.75;;;;;;;1.75;100.00;99331.19;5074287;28;20043;-76
2021/01/24 08:26:39;;;;;;;37.10;19.48;;;;;;;1.83;100.00;99345.75;5070081;28;20065;-77
2021/01/24 08:29:06;;;;;;;32.45;17.98;;;;;;;1.75;100.00;99347.06;5077087;28;20036;-76
2021/01/24 08:31:33;;;;;;;38.08;20.30;;;;;;;1.77;100.00;99345.19;5074254;28;20050;-76
2021/01/24 08:33:59;;;;;;;35.97;18.30;;;;;;;1.86;100.00;99350.00;5070149;28;20028;-77
2021/01/24 08:36:26;;;;;;;29.80;17.05;;;;;;;1.85;100.00;99348.31;5076890;28;20509;-76
2021/01/24 08:38:56;;;;;;;34.33;17.67;;;;;;;1.89;100.00;99355.16;5070566;28;20431;-76
2021/01/24 08:41:29;;;;;;;30.98;15.15;;;;;;;1.86;100.00;99352.66;5087172;28;20035;-76
2021/01/24 08:44:06;;;;;;;;;;;;;;;1.89;100.00;99355.16;5062688;28;20491;-76
2021/01/24 08:46:42;;;;;;;28.63;14.40;;;;;;;1.88;100.00;99359.59;5061379;28;19961;-76
2021/01/24 08:49:21;;;;;;;28.88;13.60;;;;;;;1.88;100.00;99364.03;5077154;28;20067;-76
2021/01/24 08:51:54;;;;;;;26.65;13.48;;;;;;;1.88;100.00;99364.03;5077522;28;20123;-76
2021/01/24 08:54:19;;;;;;;20.17;11.23;;;;;;;1.92;100.00;99376.16;5066337;28;20044;-76
2021/01/24 08:56:45;;;;;;;18.92;11.23;;;;;;;1.91;100.00;99385.06;5068995;28;20041;-76
2021/01/24 08:59:26;;;;;;;19.80;11.25;;;;;;;1.95;100.00;99383.94;5051695;28;20036;-76
2021/01/24 09:01:55;;;;;;;20.77;10.98;;;;;;;1.90;100.00;99389.47;5072612;28;20115;-76
2021/01/24 09:04:21;;;;;;;21.67;11.07;;;;;;;1.92;100.00;99392.03;5073867;28;20422;-76
2021/01/24 09:07:13;;;;;;;22.38;10.60;;;;;;;1.91;100.00;99400.91;5073774;28;20064;-76
2021/01/24 09:09:44;;;;;;;28.92;12.85;;;;;;;1.93;100.00;99399.03;5075187;28;20078;-76
2021/01/24 09:12:11;;;;;;;25.38;12.57;;;;;;;1.96;100.00;99409.47;5104277;28;20081;-75
2021/01/24 09:14:38;;;;;;;24.52;12.18;;;;;;;1.96;100.00;99402.41;5074962;28;20407;-76
2021/01/24 09:17:30;;;;;;;29.15;13.45;;;;;;;2.00;100.00;99408.38;5077210;28;20021;-76
2021/01/24 09:19:56;;;;;;;26.75;13.38;;;;;;;1.96;100.00;99412.13;5070063;28;20054;-76
2021/01/24 09:22:21;;;;;;;25.90;13.32;;;;;;;2.01;100.00;99418.03;5089292;28;20040;-76
2021/01/24 09:24:46;;;;;;;28.35;14.77;;;;;;;2.03;100.00;99419.69;5072038;28;20093;-76
2021/01/24 09:27:13;;;;;;;32.25;14.13;;;;;;;2.03;100.00;99410.88;5082196;28;20079;-76
2021/01/24 09:29:40;;;;;;;30.55;13.80;;;;;;;2.01;100.00;99425.97;5076702;28;20024;-75
2021/01/24 09:32:07;;;;;;;31.80;14.32;;;;;;;2.08;100.00;99414.16;5073184;28;20449;-76
2021/01/24 09:34:33;;;;;;;35.25;15.82;;;;;;;2.11;100.00;99421.06;5080410;28;20043;-76
2021/01/24 09:36:58;;;;;;;29.52;14.43;;;;;;;2.12;100.00;99430.72;5071056;28;20029;-76
2021/01/24 09:39:24;;;;;;;34.78;15.02;;;;;;;2.12;100.00;99426.28;5069458;28;20037;-76
2021/01/24 09:41:50;;;;;;;33.63;16.17;;;;;;;2.03;100.00;99424.97;5078576;28;20031;-76
2021/01/24 09:44:15;;;;;;;29.65;14.30;;;;;;;2.11;100.00;99426.34;5072122;28;20662;-78
2021/01/24 09:46:41;;;;;;;36.00;14.48;;;;;;;2.14;100.00;99432.38;5070155;28;20036;-76
2021/01/24 09:49:06;;;;;;;30.38;13.20;;;;;;;2.16;100.00;99432.31;5068680;28;20032;-76
2021/01/24 09:51:32;;;;;;;28.17;14.48;;;;;;;2.33;100.00;99437.59;5075391;28;20047;-76
2021/01/24 09:53:58;;;;;;;28.75;13.85;;;;;;;2.39;100.00;99446.06;5056118;28;20040;-76
2021/01/24 09:56:25;;;;;;;30.13;12.77;;;;;;;2.39;100.00;99451.38;5098276;28;20036;-76
2021/01/24 09:58:52;;;;;;;38.03;12.05;;;;;;;2.33;100.00;99451.69;5077794;28;20027;-77
2021/01/24 10:01:18;;;;;;;25.02;11.35;;;;;;;2.36;100.00;99461.25;5068127;28;20067;-77
2021/01/24 10:03:45;;;;;;;24.58;12.63;;;;;;;2.38;100.00;99462.03;5063139;28;20016;-79
2021/01/24 10:06:10;;;;;;;30.63;11.30;;;;;;;2.36;100.00;99462.09;5048036;28;20036;-77
2021/01/24 10:08:36;;;;;;;24.73;12.45;;;;;;;2.35;100.00;99470.97;5062936;28;20032;-77
2021/01/24 10:11:01;;;;;;;27.00;11.90;;;;;;;2.35;100.00;99476.28;5062240;28;20081;-78
2021/01/24 10:13:28;;;;;;;26.27;13.32;;;;;;;2.34;100.00;99474.59;5062797;28;20056;-75
2021/01/24 10:15:53;;;;;;;39.25;18.58;;;;;;;2.47;100.00;99480.09;5065809;28;20083;-76
2021/01/24 10:18:22;;;;;;;30.55;13.90;;;;;;;2.47;100.00;99480.09;5063615;28;20055;-76
2021/01/24 10:20:47;;;;;;;35.88;14.10;;;;;;;2.55;100.00;99490.28;5059231;28;20043;-75
2021/01/24 10:23:14;;;;;;;32.53;13.13;;;;;;;2.59;100.00;99494.53;5071083;28;20061;-75
2021/01/24 10:25:40;;;;;;;34.20;15.15;;;;;;;2.56;100.00;99494.66;5069054;28;20070;-75
2021/01/24 10:28:06;;;;;;;41.53;16.73;;;;;;;2.44;100.00;99497.00;5075003;28;20063;-76
2021/01/24 10:30:31;;;;;;;33.78;14.32;;;;;;;2.50;100.00;99505.56;5067097;28;20807;-75
2021/01/24 10:32:57;;;;;;;29.17;14.23;;;;;;;2.55;100.00;99508.84;5065767;28;20061;-75
2021/01/24 10:35:23;;;;;;;33.55;15.60;;;;;;;2.63;100.00;99506.66;5067896;28;20036;-76
2021/01/24 10:37:48;;;;;;;35.85;15.43;;;;;;;2.62;100.00;99494.34;5104487;27;20078;-75
2021/01/24 10:40:14;;;;;;;34.85;15.27;;;;;;;2.66;100.00;99501.19;5075382;28;20494;-76
2021/01/24 10:42:41;;;;;;;38.80;15.95;;;;;;;2.72;100.00;99506.16;5080164;28;20028;-76
2021/01/24 10:45:08;;;;;;;35.30;16.17;;;;;;;2.68;100.00;99501.97;5075777;28;20132;-76
2021/01/24 10:47:34;;;;;;;38.92;17.63;;;;;;;2.68;100.00;99499.34;5074949;28;20088;-76
2021/01/24 10:50:01;;;;;;;41.78;17.52;;;;;;;2.76;100.00;99505.09;5074723;28;20037;-76
2021/01/24 10:52:28;;;;;;;42.60;18.15;;;;;;;2.81;100.00;99513.66;5058290;28;20024;-76
2021/01/24 10:54:53;;;;;;;35.00;16.92;;;;;;;2.87;100.00;99512.47;5066488;28;20398;-76
2021/01/24 10:57:19;;;;;;;37.83;18.00;;;;;;;2.82;100.00;99518.88;5073843;28;20098;-76
2021/01/24 10:59:44;;;;;;;48.45;21.17;;;;;;;2.77;100.00;99514.75;5063935;28;20112;-76
2021/01/24 11:02:10;;;;;;;39.67;20.50;;;;;;;2.82;100.00;99513.59;5056737;28;20068;-76
2021/01/24 11:04:35;;;;;;;48.20;21.35;;;;;;;2.87;100.00;99521.28;5068506;28;20028;-76
2021/01/24 11:07:01;;;;;;;44.60;20.83;;;;;;;2.85;100.00;99517.84;5069829;28;20040;-76
2021/01/24 11:09:28;;;;;;;139.68;46.08;;;;;;;2.86;100.00;99514.28;5078713;28;20098;-76
2021/01/24 11:11:54;;;;;;;132.73;43.97;;;;;;;2.88;100.00;99522.16;5070425;28;20487;-76
2021/01/24 11:14:19;;;;;;;114.10;41.92;;;;;;;2.89;100.00;99524.72;5070527;28;20071;-76
2021/01/24 11:16:45;;;;;;;77.72;34.83;;;;;;;2.95;100.00;99528.84;5076994;28;20029;-77
2021/01/24 11:19:10;;;;;;;53.15;24.88;;;;;;;2.94;100.00;99520.03;5063483;28;20834;-76
2021/01/24 11:21:35;;;;;;;48.97;25.25;;;;;;;3.05;100.00;99520.31;5064318;28;20039;-76
2021/01/24 11:24:01;;;;;;;52.05;25.02;;;;;;;3.09;100.00;99521.88;5062558;28;20033;-76
2021/01/24 11:26:26;;;;;;;43.90;22.35;;;;;;;3.15;100.00;99525.97;5067098;28;20107;-79